sensor_id;sensor_type;location;lat;lon;timestamp;temperature;humidity
7970;DHT22;4030;52.362;9.206;2023-03-14T00:11:47;12.10;91.30
7970;DHT22;4030;52.362;9.206;2023-03-14T00:14:13;12.20;91.40
7970;DHT22;4030;52.362;9.206;2023-03-14T00:16:40;12.10;91.30
7970;DHT22;4030;52.362;9.206;2023-03-14T00:19:06;12.20;91.40
7970;DHT22;4030;52.362;9.206;2023-03-14T00:28:53;12.10;91.40
7970;DHT22;4030;52.362;9.206;2023-03-14T00:31:19;12.10;91.40
7970;DHT22;4030;52.362;9.206;2023-03-14T00:33:45;12.10;91.40
7970;DHT22;4030;52.362;9.206;2023-03-14T00:36:13;12.10;91.40
7970;DHT22;4030;52.362;9.206;2023-03-14T00:38:42;12.20;91.50
7970;DHT22;4030;52.362;9.206;2023-03-14T00:41:11;12.20;91.50
7970;DHT22;4030;52.362;9.206;2023-03-14T00:43:38;12.10;91.50
7970;DHT22;4030;52.362;9.206;2023-03-14T00:46:05;12.10;91.50
7970;DHT22;4030;52.362;9.206;2023-03-14T00:48:31;12.10;91.60
7970;DHT22;4030;52.362;9.206;2023-03-14T00:55:49;12.10;91.60
7970;DHT22;4030;52.362;9.206;2023-03-14T00:58:16;12.00;91.60
7970;DHT22;4030;52.362;9.206;2023-03-14T01:00:44;12.10;91.70
7970;DHT22;4030;52.362;9.206;2023-03-14T01:03:12;12.10;91.60
7970;DHT22;4030;52.362;9.206;2023-03-14T01:05:39;12.10;91.70
7970;DHT22;4030;52.362;9.206;2023-03-14T01:08:05;12.10;91.70
7970;DHT22;4030;52.362;9.206;2023-03-14T01:10:32;11.90;91.60
7970;DHT22;4030;52.362;9.206;2023-03-14T01:12:58;12.10;91.70
7970;DHT22;4030;52.362;9.206;2023-03-14T01:15:24;12.00;91.70
7970;DHT22;4030;52.362;9.206;2023-03-14T01:17:50;12.00;91.70
7970;DHT22;4030;52.362;9.206;2023-03-14T01:20:17;12.10;91.70
7970;DHT22;4030;52.362;9.206;2023-03-14T01:22:44;12.00;91.70
7970;DHT22;4030;52.362;9.206;2023-03-14T01:25:13;11.90;91.70
7970;DHT22;4030;52.362;9.206;2023-03-14T01:30:06;12.00;91.80
7970;DHT22;4030;52.362;9.206;2023-03-14T01:32:33;12.00;91.80
7970;DHT22;4030;52.362;9.206;2023-03-14T01:34:59;12.00;91.80
7970;DHT22;4030;52.362;9.206;2023-03-14T01:37:24;12.00;91.90
7970;DHT22;4030;52.362;9.206;2023-03-14T01:39:50;11.90;91.80
7970;DHT22;4030;52.362;9.206;2023-03-14T01:44:55;12.00;91.90
7970;DHT22;4030;52.362;9.206;2023-03-14T01:47:23;11.90;91.80
7970;DHT22;4030;52.362;9.206;2023-03-14T01:49:58;12.00;91.90
7970;DHT22;4030;52.362;9.206;2023-03-14T01:52:31;12.00;91.90
7970;DHT22;4030;52.362;9.206;2023-03-14T01:55:05;11.90;91.80
7970;DHT22;4030;52.362;9.206;2023-03-14T01:57:37;12.00;91.90
7970;DHT22;4030;52.362;9.206;2023-03-14T02:00:11;12.00;91.90
7970;DHT22;4030;52.362;9.206;2023-03-14T02:02:42;11.90;91.80
7970;DHT22;4030;52.362;9.206;2023-03-14T02:05:10;12.00;91.90
7970;DHT22;4030;52.362;9.206;2023-03-14T02:07:47;11.90;91.90
7970;DHT22;4030;52.362;9.206;2023-03-14T02:10:17;11.90;91.90
7970;DHT22;4030;52.362;9.206;2023-03-14T02:12:48;11.90;91.90
7970;DHT22;4030;52.362;9.206;2023-03-14T02:15:14;11.90;91.80
7970;DHT22;4030;52.362;9.206;2023-03-14T02:17:42;11.90;91.90
7970;DHT22;4030;52.362;9.206;2023-03-14T02:23:05;11.90;91.80
7970;DHT22;4030;52.362;9.206;2023-03-14T02:25:54;11.90;91.80
7970;DHT22;4030;52.362;9.206;2023-03-14T02:30:50;11.90;91.80
7970;DHT22;4030;52.362;9.206;2023-03-14T02:33:17;11.90;91.80
7970;DHT22;4030;52.362;9.206;2023-03-14T02:36:02;11.90;91.80
7970;DHT22;4030;52.362;9.206;2023-03-14T02:41:34;12.00;91.80
7970;DHT22;4030;52.362;9.206;2023-03-14T02:43:59;11.80;91.70
7970;DHT22;4030;52.362;9.206;2023-03-14T02:48:55;11.90;91.70
7970;DHT22;4030;52.362;9.206;2023-03-14T02:51:22;11.90;91.70
7970;DHT22;4030;52.362;9.206;2023-03-14T02:53:48;11.90;91.70
7970;DHT22;4030;52.362;9.206;2023-03-14T02:56:14;11.90;91.70
7970;DHT22;4030;52.362;9.206;2023-03-14T03:01:06;11.90;91.70
7970;DHT22;4030;52.362;9.206;2023-03-14T03:08:25;12.10;91.80
7970;DHT22;4030;52.362;9.206;2023-03-14T03:13:18;11.90;91.70
7970;DHT22;4030;52.362;9.206;2023-03-14T03:15:44;11.80;91.60
7970;DHT22;4030;52.362;9.206;2023-03-14T03:18:10;11.90;91.70
7970;DHT22;4030;52.362;9.206;2023-03-14T03:20:37;11.80;91.80
7970;DHT22;4030;52.362;9.206;2023-03-14T03:23:04;11.80;91.90
7970;DHT22;4030;52.362;9.206;2023-03-14T03:27:56;11.80;92.40
7970;DHT22;4030;52.362;9.206;2023-03-14T03:37:41;11.70;92.60
7970;DHT22;4030;52.362;9.206;2023-03-14T03:40:08;11.70;92.60
7970;DHT22;4030;52.362;9.206;2023-03-14T03:42:35;11.50;92.60
7970;DHT22;4030;52.362;9.206;2023-03-14T03:45:02;11.60;92.70
7970;DHT22;4030;52.362;9.206;2023-03-14T03:47:29;11.50;92.70
7970;DHT22;4030;52.362;9.206;2023-03-14T03:49:55;11.50;92.70
7970;DHT22;4030;52.362;9.206;2023-03-14T04:02:06;11.30;92.60
7970;DHT22;4030;52.362;9.206;2023-03-14T04:04:32;11.30;92.60
7970;DHT22;4030;52.362;9.206;2023-03-14T04:06:58;11.30;92.60
7970;DHT22;4030;52.362;9.206;2023-03-14T04:16:42;11.20;92.60
7970;DHT22;4030;52.362;9.206;2023-03-14T04:31:20;11.10;92.60
7970;DHT22;4030;52.362;9.206;2023-03-14T04:33:46;11.10;92.60
7970;DHT22;4030;52.362;9.206;2023-03-14T04:36:13;11.10;92.60
7970;DHT22;4030;52.362;9.206;2023-03-14T04:41:05;11.00;92.50
7970;DHT22;4030;52.362;9.206;2023-03-14T04:43:32;10.90;92.50
7970;DHT22;4030;52.362;9.206;2023-03-14T04:48:26;11.00;92.50
7970;DHT22;4030;52.362;9.206;2023-03-14T04:50:52;11.00;92.50
7970;DHT22;4030;52.362;9.206;2023-03-14T04:53:18;10.90;92.50
7970;DHT22;4030;52.362;9.206;2023-03-14T04:55:52;10.90;92.40
7970;DHT22;4030;52.362;9.206;2023-03-14T04:58:20;11.00;92.50
7970;DHT22;4030;52.362;9.206;2023-03-14T05:00:46;11.00;92.50
7970;DHT22;4030;52.362;9.206;2023-03-14T05:03:15;10.90;92.40
7970;DHT22;4030;52.362;9.206;2023-03-14T05:10:33;11.00;92.60
7970;DHT22;4030;52.362;9.206;2023-03-14T05:20:19;10.70;92.60
7970;DHT22;4030;52.362;9.206;2023-03-14T05:25:11;10.80;92.70
7970;DHT22;4030;52.362;9.206;2023-03-14T05:27:37;10.90;92.70
7970;DHT22;4030;52.362;9.206;2023-03-14T05:30:06;10.80;92.70
7970;DHT22;4030;52.362;9.206;2023-03-14T05:32:32;10.80;92.70
7970;DHT22;4030;52.362;9.206;2023-03-14T05:34:58;10.80;92.70
7970;DHT22;4030;52.362;9.206;2023-03-14T05:37:27;10.70;92.70
7970;DHT22;4030;52.362;9.206;2023-03-14T05:39:53;10.80;92.70
7970;DHT22;4030;52.362;9.206;2023-03-14T05:42:19;10.80;92.70
7970;DHT22;4030;52.362;9.206;2023-03-14T05:44:44;10.80;92.70
7970;DHT22;4030;52.362;9.206;2023-03-14T05:47:10;10.60;92.70
7970;DHT22;4030;52.362;9.206;2023-03-14T05:52:02;10.70;92.70
7970;DHT22;4030;52.362;9.206;2023-03-14T06:06:38;10.70;92.80
7970;DHT22;4030;52.362;9.206;2023-03-14T06:31:00;10.80;93.10
7970;DHT22;4030;52.362;9.206;2023-03-14T06:35:52;10.90;93.00
7970;DHT22;4030;52.362;9.206;2023-03-14T06:38:17;10.70;92.90
7970;DHT22;4030;52.362;9.206;2023-03-14T06:45:35;11.00;92.90
7970;DHT22;4030;52.362;9.206;2023-03-14T06:48:01;11.00;93.00
7970;DHT22;4030;52.362;9.206;2023-03-14T06:50:27;11.00;92.90
7970;DHT22;4030;52.362;9.206;2023-03-14T06:52:53;11.00;92.90
7970;DHT22;4030;52.362;9.206;2023-03-14T07:00:13;11.10;92.90
7970;DHT22;4030;52.362;9.206;2023-03-14T07:02:39;11.10;92.80
7970;DHT22;4030;52.362;9.206;2023-03-14T07:05:05;11.10;92.80
7970;DHT22;4030;52.362;9.206;2023-03-14T07:07:31;11.20;92.90
7970;DHT22;4030;52.362;9.206;2023-03-14T07:12:23;11.10;92.80
7970;DHT22;4030;52.362;9.206;2023-03-14T07:14:49;11.00;92.80
7970;DHT22;4030;52.362;9.206;2023-03-14T07:17:14;11.20;92.80
7970;DHT22;4030;52.362;9.206;2023-03-14T08:03:29;11.50;93.20
7970;DHT22;4030;52.362;9.206;2023-03-14T08:08:21;11.40;93.20
7970;DHT22;4030;52.362;9.206;2023-03-14T08:10:47;11.50;93.30
7970;DHT22;4030;52.362;9.206;2023-03-14T08:13:13;11.50;93.30
7970;DHT22;4030;52.362;9.206;2023-03-14T08:15:39;11.60;93.40
7970;DHT22;4030;52.362;9.206;2023-03-14T08:18:05;11.60;93.50
7970;DHT22;4030;52.362;9.206;2023-03-14T08:20:31;11.60;93.40
7970;DHT22;4030;52.362;9.206;2023-03-14T08:22:58;11.60;93.40
7970;DHT22;4030;52.362;9.206;2023-03-14T08:25:25;11.60;93.50
7970;DHT22;4030;52.362;9.206;2023-03-14T08:30:19;11.60;93.40
7970;DHT22;4030;52.362;9.206;2023-03-14T08:32:46;11.70;93.50
7970;DHT22;4030;52.362;9.206;2023-03-14T08:35:12;11.70;93.40
7970;DHT22;4030;52.362;9.206;2023-03-14T08:37:38;11.80;93.50
7970;DHT22;4030;52.362;9.206;2023-03-14T08:40:05;11.70;93.50
7970;DHT22;4030;52.362;9.206;2023-03-14T08:42:35;11.80;93.50
7970;DHT22;4030;52.362;9.206;2023-03-14T08:45:03;11.90;93.60
7970;DHT22;4030;52.362;9.206;2023-03-14T08:47:29;11.80;93.60
7970;DHT22;4030;52.362;9.206;2023-03-14T09:02:05;11.90;93.90
7970;DHT22;4030;52.362;9.206;2023-03-14T09:04:32;11.80;93.90
7970;DHT22;4030;52.362;9.206;2023-03-14T09:06:59;11.80;93.90
7970;DHT22;4030;52.362;9.206;2023-03-14T09:09:25;11.80;94.00
7970;DHT22;4030;52.362;9.206;2023-03-14T09:19:13;12.20;94.10
7970;DHT22;4030;52.362;9.206;2023-03-14T09:28:58;12.40;94.10
7970;DHT22;4030;52.362;9.206;2023-03-14T09:41:33;12.50;94.00
7970;DHT22;4030;52.362;9.206;2023-03-14T09:44:08;12.50;94.00
7970;DHT22;4030;52.362;9.206;2023-03-14T09:46:38;12.50;94.10
7970;DHT22;4030;52.362;9.206;2023-03-14T09:49:11;12.50;94.10
7970;DHT22;4030;52.362;9.206;2023-03-14T09:51:41;12.50;94.10
7970;DHT22;4030;52.362;9.206;2023-03-14T09:54:21;12.60;94.20
7970;DHT22;4030;52.362;9.206;2023-03-14T09:56:52;12.50;94.20
7970;DHT22;4030;52.362;9.206;2023-03-14T10:04:14;12.40;94.40
7970;DHT22;4030;52.362;9.206;2023-03-14T10:06:41;12.30;94.50
7970;DHT22;4030;52.362;9.206;2023-03-14T10:09:11;12.30;94.50
7970;DHT22;4030;52.362;9.206;2023-03-14T10:14:10;12.30;94.70
7970;DHT22;4030;52.362;9.206;2023-03-14T10:16:43;12.20;94.70
7970;DHT22;4030;52.362;9.206;2023-03-14T10:19:13;12.40;94.90
7970;DHT22;4030;52.362;9.206;2023-03-14T10:21:44;12.30;94.80
7970;DHT22;4030;52.362;9.206;2023-03-14T10:24:33;12.20;94.70
7970;DHT22;4030;52.362;9.206;2023-03-14T10:27:21;12.20;94.70
7970;DHT22;4030;52.362;9.206;2023-03-14T10:29:54;12.30;94.80
7970;DHT22;4030;52.362;9.206;2023-03-14T10:32:22;12.30;94.70
7970;DHT22;4030;52.362;9.206;2023-03-14T10:35:26;12.30;94.70
7970;DHT22;4030;52.362;9.206;2023-03-14T10:37:53;12.40;94.70
7970;DHT22;4030;52.362;9.206;2023-03-14T10:40:34;12.40;94.70
7970;DHT22;4030;52.362;9.206;2023-03-14T10:43:05;12.40;94.80
7970;DHT22;4030;52.362;9.206;2023-03-14T10:45:33;12.40;94.90
7970;DHT22;4030;52.362;9.206;2023-03-14T10:48:23;12.30;95.10
7970;DHT22;4030;52.362;9.206;2023-03-14T10:50:56;12.30;95.20
7970;DHT22;4030;52.362;9.206;2023-03-14T10:53:25;12.30;95.40
7970;DHT22;4030;52.362;9.206;2023-03-14T10:55:51;12.10;95.50
7970;DHT22;4030;52.362;9.206;2023-03-14T10:58:28;12.10;95.60
7970;DHT22;4030;52.362;9.206;2023-03-14T11:07:00;12.00;95.10
7970;DHT22;4030;52.362;9.206;2023-03-14T11:09:54;11.90;94.90
7970;DHT22;4030;52.362;9.206;2023-03-14T11:12:37;12.00;94.80
7970;DHT22;4030;52.362;9.206;2023-03-14T11:15:41;11.90;94.70
7970;DHT22;4030;52.362;9.206;2023-03-14T11:24:18;11.60;94.20
7970;DHT22;4030;52.362;9.206;2023-03-14T11:26:59;11.80;94.20
7970;DHT22;4030;52.362;9.206;2023-03-14T11:29:53;11.50;93.80
7970;DHT22;4030;52.362;9.206;2023-03-14T11:37:33;11.40;93.30
7970;DHT22;4030;52.362;9.206;2023-03-14T11:40:13;11.30;93.00
7970;DHT22;4030;52.362;9.206;2023-03-14T11:42:42;11.30;92.90
7970;DHT22;4030;52.362;9.206;2023-03-14T11:45:17;11.20;92.70
7970;DHT22;4030;52.362;9.206;2023-03-14T11:47:51;11.20;92.60
7970;DHT22;4030;52.362;9.206;2023-03-14T11:50:24;11.00;92.40
7970;DHT22;4030;52.362;9.206;2023-03-14T11:53:17;10.90;92.40
7970;DHT22;4030;52.362;9.206;2023-03-14T11:55:47;10.90;92.40
7970;DHT22;4030;52.362;9.206;2023-03-14T11:58:29;10.90;92.40
7970;DHT22;4030;52.362;9.206;2023-03-14T12:01:04;10.90;92.40
7970;DHT22;4030;52.362;9.206;2023-03-14T12:03:39;10.80;92.30
7970;DHT22;4030;52.362;9.206;2023-03-14T12:06:43;10.70;92.20
7970;DHT22;4030;52.362;9.206;2023-03-14T12:09:13;10.60;92.20
7970;DHT22;4030;52.362;9.206;2023-03-14T12:11:58;10.70;92.10
7970;DHT22;4030;52.362;9.206;2023-03-14T12:14:35;10.60;92.10
7970;DHT22;4030;52.362;9.206;2023-03-14T12:17:47;10.60;92.00
7970;DHT22;4030;52.362;9.206;2023-03-14T12:20:15;10.40;91.90
7970;DHT22;4030;52.362;9.206;2023-03-14T12:22:52;10.60;91.80
7970;DHT22;4030;52.362;9.206;2023-03-14T12:25:24;10.60;91.70
7970;DHT22;4030;52.362;9.206;2023-03-14T12:30:40;10.70;91.60
7970;DHT22;4030;52.362;9.206;2023-03-14T12:35:46;10.70;91.50
7970;DHT22;4030;52.362;9.206;2023-03-14T12:38:42;10.80;91.60
7970;DHT22;4030;52.362;9.206;2023-03-14T12:41:15;10.80;91.50
7970;DHT22;4030;52.362;9.206;2023-03-14T12:43:45;11.00;91.60
7970;DHT22;4030;52.362;9.206;2023-03-14T12:46:26;10.80;91.50
7970;DHT22;4030;52.362;9.206;2023-03-14T12:51:42;10.70;91.40
7970;DHT22;4030;52.362;9.206;2023-03-14T12:57:45;10.60;91.40
7970;DHT22;4030;52.362;9.206;2023-03-14T13:00:39;10.60;91.40
7970;DHT22;4030;52.362;9.206;2023-03-14T13:05:56;10.60;91.30
7970;DHT22;4030;52.362;9.206;2023-03-14T13:08:42;10.60;91.30
7970;DHT22;4030;52.362;9.206;2023-03-14T13:11:15;10.60;91.30
7970;DHT22;4030;52.362;9.206;2023-03-14T13:13:57;10.70;91.30
7970;DHT22;4030;52.362;9.206;2023-03-14T13:18:58;10.60;91.30
7970;DHT22;4030;52.362;9.206;2023-03-14T13:21:27;10.60;91.30
7970;DHT22;4030;52.362;9.206;2023-03-14T13:24:01;10.70;91.40
7970;DHT22;4030;52.362;9.206;2023-03-14T13:26:47;10.60;91.30
7970;DHT22;4030;52.362;9.206;2023-03-14T13:29:29;10.50;91.20
7970;DHT22;4030;52.362;9.206;2023-03-14T13:32:01;10.60;91.20
7970;DHT22;4030;52.362;9.206;2023-03-14T13:34:35;10.50;91.10
7970;DHT22;4030;52.362;9.206;2023-03-14T13:37:01;10.60;91.10
7970;DHT22;4030;52.362;9.206;2023-03-14T13:39:28;10.60;91.00
7970;DHT22;4030;52.362;9.206;2023-03-14T13:41:58;10.70;91.00
7970;DHT22;4030;52.362;9.206;2023-03-14T13:44:27;10.70;90.90
7970;DHT22;4030;52.362;9.206;2023-03-14T13:47:00;10.80;90.90
7970;DHT22;4030;52.362;9.206;2023-03-14T13:49:28;10.90;91.00
7970;DHT22;4030;52.362;9.206;2023-03-14T13:51:57;10.90;90.90
7970;DHT22;4030;52.362;9.206;2023-03-14T13:54:25;10.90;90.80
7970;DHT22;4030;52.362;9.206;2023-03-14T13:57:06;10.90;90.80
7970;DHT22;4030;52.362;9.206;2023-03-14T13:59:34;10.90;90.70
7970;DHT22;4030;52.362;9.206;2023-03-14T14:02:10;10.90;90.70
7970;DHT22;4030;52.362;9.206;2023-03-14T14:04:39;10.80;90.70
7970;DHT22;4030;52.362;9.206;2023-03-14T14:07:10;11.00;90.60
7970;DHT22;4030;52.362;9.206;2023-03-14T14:09:52;10.90;90.50
7970;DHT22;4030;52.362;9.206;2023-03-14T14:12:23;10.90;90.60
7970;DHT22;4030;52.362;9.206;2023-03-14T14:14:58;10.70;90.60
7970;DHT22;4030;52.362;9.206;2023-03-14T14:17:40;10.70;90.60
7970;DHT22;4030;52.362;9.206;2023-03-14T14:20:21;10.80;90.60
7970;DHT22;4030;52.362;9.206;2023-03-14T14:23:05;10.80;90.50
7970;DHT22;4030;52.362;9.206;2023-03-14T14:25:38;10.80;90.50
7970;DHT22;4030;52.362;9.206;2023-03-14T14:33:46;10.70;90.40
7970;DHT22;4030;52.362;9.206;2023-03-14T14:36:21;10.70;90.30
7970;DHT22;4030;52.362;9.206;2023-03-14T14:39:04;10.60;90.30
7970;DHT22;4030;52.362;9.206;2023-03-14T14:41:35;10.70;90.20
7970;DHT22;4030;52.362;9.206;2023-03-14T14:44:05;10.60;90.00
7970;DHT22;4030;52.362;9.206;2023-03-14T14:46:34;10.70;89.50
7970;DHT22;4030;52.362;9.206;2023-03-14T14:49:22;10.70;89.00
7970;DHT22;4030;52.362;9.206;2023-03-14T14:52:11;10.70;88.80
7970;DHT22;4030;52.362;9.206;2023-03-14T14:54:43;10.60;88.40
7970;DHT22;4030;52.362;9.206;2023-03-14T14:57:22;10.60;88.60
7970;DHT22;4030;52.362;9.206;2023-03-14T14:59:55;10.70;88.20
7970;DHT22;4030;52.362;9.206;2023-03-14T15:02:37;11.10;87.90
7970;DHT22;4030;52.362;9.206;2023-03-14T15:05:22;11.70;87.00
7970;DHT22;4030;52.362;9.206;2023-03-14T15:07:49;11.70;86.20
7970;DHT22;4030;52.362;9.206;2023-03-14T15:10:20;11.70;85.90
7970;DHT22;4030;52.362;9.206;2023-03-14T15:12:48;11.60;85.40
7970;DHT22;4030;52.362;9.206;2023-03-14T15:15:14;11.60;85.40
7970;DHT22;4030;52.362;9.206;2023-03-14T15:20:12;11.40;85.20
7970;DHT22;4030;52.362;9.206;2023-03-14T15:22:39;11.40;85.30
7970;DHT22;4030;52.362;9.206;2023-03-14T15:25:06;11.20;85.20
7970;DHT22;4030;52.362;9.206;2023-03-14T15:27:32;11.10;85.10
7970;DHT22;4030;52.362;9.206;2023-03-14T15:29:58;11.00;85.00
7970;DHT22;4030;52.362;9.206;2023-03-14T15:32:25;11.00;84.60
7970;DHT22;4030;52.362;9.206;2023-03-14T15:34:54;10.90;84.40
7970;DHT22;4030;52.362;9.206;2023-03-14T15:37:20;10.80;84.00
7970;DHT22;4030;52.362;9.206;2023-03-14T15:39:45;11.00;83.70
7970;DHT22;4030;52.362;9.206;2023-03-14T15:42:11;11.30;82.30
7970;DHT22;4030;52.362;9.206;2023-03-14T15:47:04;12.10;78.80
7970;DHT22;4030;52.362;9.206;2023-03-14T15:49:31;12.00;78.20
7970;DHT22;4030;52.362;9.206;2023-03-14T15:51:58;12.10;78.00
7970;DHT22;4030;52.362;9.206;2023-03-14T15:54:24;12.20;77.10
7970;DHT22;4030;52.362;9.206;2023-03-14T15:56:56;12.30;77.40
7970;DHT22;4030;52.362;9.206;2023-03-14T15:59:23;12.10;77.40
7970;DHT22;4030;52.362;9.206;2023-03-14T16:01:49;12.30;77.60
7970;DHT22;4030;52.362;9.206;2023-03-14T16:04:14;12.50;77.00
7970;DHT22;4030;52.362;9.206;2023-03-14T16:06:40;13.30;75.10
7970;DHT22;4030;52.362;9.206;2023-03-14T16:13:58;17.10;62.20
7970;DHT22;4030;52.362;9.206;2023-03-14T16:21:18;15.60;63.60
7970;DHT22;4030;52.362;9.206;2023-03-14T16:23:45;15.00;65.90
7970;DHT22;4030;52.362;9.206;2023-03-14T16:26:15;14.40;67.60
7970;DHT22;4030;52.362;9.206;2023-03-14T16:28:43;13.90;69.20
7970;DHT22;4030;52.362;9.206;2023-03-14T16:31:12;13.50;69.70
7970;DHT22;4030;52.362;9.206;2023-03-14T16:36:09;12.80;71.40
7970;DHT22;4030;52.362;9.206;2023-03-14T16:38:38;12.40;71.80
7970;DHT22;4030;52.362;9.206;2023-03-14T16:41:11;12.30;72.30
7970;DHT22;4030;52.362;9.206;2023-03-14T16:43:38;12.10;73.00
7970;DHT22;4030;52.362;9.206;2023-03-14T16:46:06;11.90;73.70
7970;DHT22;4030;52.362;9.206;2023-03-14T16:48:33;11.80;74.10
7970;DHT22;4030;52.362;9.206;2023-03-14T16:55:53;11.30;75.20
7970;DHT22;4030;52.362;9.206;2023-03-14T16:58:19;11.20;75.60
7970;DHT22;4030;52.362;9.206;2023-03-14T17:00:46;11.00;75.60
7970;DHT22;4030;52.362;9.206;2023-03-14T17:03:12;10.90;75.80
7970;DHT22;4030;52.362;9.206;2023-03-14T17:05:47;10.90;75.70
7970;DHT22;4030;52.362;9.206;2023-03-14T17:08:15;10.80;75.80
7970;DHT22;4030;52.362;9.206;2023-03-14T17:10:41;10.70;76.20
7970;DHT22;4030;52.362;9.206;2023-03-14T17:13:07;10.60;76.20
7970;DHT22;4030;52.362;9.206;2023-03-14T17:20:27;10.30;76.40
7970;DHT22;4030;52.362;9.206;2023-03-14T17:30:12;10.20;76.60
7970;DHT22;4030;52.362;9.206;2023-03-14T17:35:04;10.10;76.80
7970;DHT22;4030;52.362;9.206;2023-03-14T17:42:26;9.90;78.50
7970;DHT22;4030;52.362;9.206;2023-03-14T17:52:11;9.70;78.90
7970;DHT22;4030;52.362;9.206;2023-03-14T17:54:37;9.60;78.80
7970;DHT22;4030;52.362;9.206;2023-03-14T17:57:03;9.60;78.80
7970;DHT22;4030;52.362;9.206;2023-03-14T18:16:35;9.30;78.20
7970;DHT22;4030;52.362;9.206;2023-03-14T18:21:27;9.30;78.10
7970;DHT22;4030;52.362;9.206;2023-03-14T18:23:54;9.20;78.30
7970;DHT22;4030;52.362;9.206;2023-03-14T18:26:20;9.30;78.10
7970;DHT22;4030;52.362;9.206;2023-03-14T18:28:46;9.20;78.20
7970;DHT22;4030;52.362;9.206;2023-03-14T18:31:13;9.10;77.90
7970;DHT22;4030;52.362;9.206;2023-03-14T18:36:10;9.00;77.40
7970;DHT22;4030;52.362;9.206;2023-03-14T18:38:37;9.10;77.60
7970;DHT22;4030;52.362;9.206;2023-03-14T18:41:08;9.10;77.40
7970;DHT22;4030;52.362;9.206;2023-03-14T18:43:36;8.80;77.10
7970;DHT22;4030;52.362;9.206;2023-03-14T18:46:01;9.00;77.30
7970;DHT22;4030;52.362;9.206;2023-03-14T18:48:28;8.90;77.20
7970;DHT22;4030;52.362;9.206;2023-03-14T18:55:53;8.90;77.10
7970;DHT22;4030;52.362;9.206;2023-03-14T18:58:19;8.80;76.90
7970;DHT22;4030;52.362;9.206;2023-03-14T19:05:43;8.70;76.70
7970;DHT22;4030;52.362;9.206;2023-03-14T19:08:08;8.70;76.70
7970;DHT22;4030;52.362;9.206;2023-03-14T19:25:15;8.50;76.20
7970;DHT22;4030;52.362;9.206;2023-03-14T19:34:59;8.40;76.20
7970;DHT22;4030;52.362;9.206;2023-03-14T20:04:13;8.30;76.50
7970;DHT22;4030;52.362;9.206;2023-03-14T20:06:40;8.00;76.30
7970;DHT22;4030;52.362;9.206;2023-03-14T20:09:09;8.00;76.30
7970;DHT22;4030;52.362;9.206;2023-03-14T20:11:35;7.90;76.20
7970;DHT22;4030;52.362;9.206;2023-03-14T20:14:08;8.00;76.40
7970;DHT22;4030;52.362;9.206;2023-03-14T20:16:38;8.20;76.60
7970;DHT22;4030;52.362;9.206;2023-03-14T20:19:10;8.00;76.40
7970;DHT22;4030;52.362;9.206;2023-03-14T20:21:36;8.00;76.50
7970;DHT22;4030;52.362;9.206;2023-03-14T20:24:03;8.00;76.50
7970;DHT22;4030;52.362;9.206;2023-03-14T20:26:30;7.90;76.50
7970;DHT22;4030;52.362;9.206;2023-03-14T20:31:25;7.90;76.60
7970;DHT22;4030;52.362;9.206;2023-03-14T20:33:51;7.90;76.60
7970;DHT22;4030;52.362;9.206;2023-03-14T20:43:35;7.90;76.60
7970;DHT22;4030;52.362;9.206;2023-03-14T20:46:01;7.80;76.50
7970;DHT22;4030;52.362;9.206;2023-03-14T20:48:29;7.70;76.40
7970;DHT22;4030;52.362;9.206;2023-03-14T20:55:48;7.70;76.30
7970;DHT22;4030;52.362;9.206;2023-03-14T20:58:15;7.80;76.30
7970;DHT22;4030;52.362;9.206;2023-03-14T21:00:48;7.60;76.10
7970;DHT22;4030;52.362;9.206;2023-03-14T21:03:16;7.60;76.10
7970;DHT22;4030;52.362;9.206;2023-03-14T21:05:43;7.60;76.20
7970;DHT22;4030;52.362;9.206;2023-03-14T21:08:11;7.50;76.20
7970;DHT22;4030;52.362;9.206;2023-03-14T21:10:37;7.50;76.10
7970;DHT22;4030;52.362;9.206;2023-03-14T21:13:03;7.50;76.20
7970;DHT22;4030;52.362;9.206;2023-03-14T21:15:29;7.50;76.20
7970;DHT22;4030;52.362;9.206;2023-03-14T21:17:55;7.60;76.30
7970;DHT22;4030;52.362;9.206;2023-03-14T21:20:21;7.60;76.40
7970;DHT22;4030;52.362;9.206;2023-03-14T21:25:17;7.60;76.50
7970;DHT22;4030;52.362;9.206;2023-03-14T21:27:42;7.40;76.20
7970;DHT22;4030;52.362;9.206;2023-03-14T21:30:10;7.40;76.10
7970;DHT22;4030;52.362;9.206;2023-03-14T21:35:02;7.40;76.20
7970;DHT22;4030;52.362;9.206;2023-03-14T21:39:54;7.40;76.30
7970;DHT22;4030;52.362;9.206;2023-03-14T21:42:23;7.30;76.20
7970;DHT22;4030;52.362;9.206;2023-03-14T21:44:49;7.50;76.30
7970;DHT22;4030;52.362;9.206;2023-03-14T21:47:17;7.30;76.00
7970;DHT22;4030;52.362;9.206;2023-03-14T21:49:43;7.30;76.20
7970;DHT22;4030;52.362;9.206;2023-03-14T21:52:12;7.30;76.20
7970;DHT22;4030;52.362;9.206;2023-03-14T21:54:39;7.30;76.10
7970;DHT22;4030;52.362;9.206;2023-03-14T21:57:07;7.40;76.30
7970;DHT22;4030;52.362;9.206;2023-03-14T21:59:35;7.30;76.30
7970;DHT22;4030;52.362;9.206;2023-03-14T22:02:04;7.10;76.10
7970;DHT22;4030;52.362;9.206;2023-03-14T22:04:32;7.30;76.20
7970;DHT22;4030;52.362;9.206;2023-03-14T22:07:12;7.40;76.30
7970;DHT22;4030;52.362;9.206;2023-03-14T22:09:42;7.30;76.30
7970;DHT22;4030;52.362;9.206;2023-03-14T22:12:09;7.10;76.20
7970;DHT22;4030;52.362;9.206;2023-03-14T22:17:03;7.10;76.10
7970;DHT22;4030;52.362;9.206;2023-03-14T22:19:30;7.10;76.20
7970;DHT22;4030;52.362;9.206;2023-03-14T22:21:58;7.10;76.30
7970;DHT22;4030;52.362;9.206;2023-03-14T22:24:25;7.40;76.70
7970;DHT22;4030;52.362;9.206;2023-03-14T22:26:51;7.10;76.40
7970;DHT22;4030;52.362;9.206;2023-03-14T22:29:19;7.00;76.40
7970;DHT22;4030;52.362;9.206;2023-03-14T22:31:48;7.00;76.40
7970;DHT22;4030;52.362;9.206;2023-03-14T22:34:14;6.90;76.30
7970;DHT22;4030;52.362;9.206;2023-03-14T22:36:40;6.90;76.30
7970;DHT22;4030;52.362;9.206;2023-03-14T22:41:33;6.90;76.30
7970;DHT22;4030;52.362;9.206;2023-03-14T22:43:59;7.00;76.50
7970;DHT22;4030;52.362;9.206;2023-03-14T22:46:24;7.00;76.60
7970;DHT22;4030;52.362;9.206;2023-03-14T22:48:50;7.00;76.60
7970;DHT22;4030;52.362;9.206;2023-03-14T22:53:43;6.80;76.50
7970;DHT22;4030;52.362;9.206;2023-03-14T22:56:12;6.70;76.40
7970;DHT22;4030;52.362;9.206;2023-03-14T23:01:05;6.80;76.50
7970;DHT22;4030;52.362;9.206;2023-03-14T23:03:31;6.70;76.50
7970;DHT22;4030;52.362;9.206;2023-03-14T23:05:57;6.70;76.50
7970;DHT22;4030;52.362;9.206;2023-03-14T23:08:22;6.70;76.50
7970;DHT22;4030;52.362;9.206;2023-03-14T23:13:17;6.70;76.70
7970;DHT22;4030;52.362;9.206;2023-03-14T23:15:43;6.60;76.60
7970;DHT22;4030;52.362;9.206;2023-03-14T23:18:11;6.60;76.60
7970;DHT22;4030;52.362;9.206;2023-03-14T23:20:38;6.80;76.90
7970;DHT22;4030;52.362;9.206;2023-03-14T23:23:04;6.50;76.60
7970;DHT22;4030;52.362;9.206;2023-03-14T23:25:33;6.60;76.70
7970;DHT22;4030;52.362;9.206;2023-03-14T23:28:01;6.60;76.70
7970;DHT22;4030;52.362;9.206;2023-03-14T23:40:11;6.60;76.80
7970;DHT22;4030;52.362;9.206;2023-03-14T23:45:04;6.50;76.80
7970;DHT22;4030;52.362;9.206;2023-03-14T23:47:30;6.50;76.90
